Time;durP1;ratioP1;P1;durP2;ratioP2;P2;SDS_P1;SDS_P2;PMS_P1;PMS_P2;Temp;Humidity;BMP_temperature;BMP_pressure;BME280_temperature;BME280_humidity;BME280_pressure;Samples;Min_cycle;Max_cycle;Signal;HPM_P1;HPM_P2
2023/02/23 00:00:20;;;;;;;0.50;0.50;;;;;;;8.00;76.68;96521.94;29395;267;63009;-65
2023/02/23 00:00:52;;;;;;;0.50;0.50;;;;;;;8.01;76.88;96528.94;29395;251;63005;-67
2023/02/23 00:01:29;;;;;;;0.50;0.50;;;;;;;8.00;76.69;96532.75;29395;264;63009;-65
2023/02/23 00:02:04;;;;;;;0.50;0.50;;;;;;;7.99;76.69;96531.13;29395;238;63004;-66
2023/02/23 00:02:35;;;;;;;0.50;0.50;;;;;;;7.98;76.61;96524.13;29395;289;63009;-64
2023/02/23 00:03:07;;;;;;;0.50;0.50;;;;;;;8.00;76.90;96523.84;29395;276;63004;-64
2023/02/23 00:03:39;;;;;;;0.50;0.50;;;;;;;8.00;76.84;96527.34;29394;207;64013;-68
2023/02/23 00:04:11;;;;;;;0.50;0.50;;;;;;;7.99;77.07;96522.22;29395;217;63007;-66
2023/02/23 00:04:42;;;;;;;0.50;0.50;;;;;;;7.98;77.17;96526.81;29395;217;63009;-67
2023/02/23 00:05:15;;;;;;;0.50;0.50;;;;;;;7.98;77.21;96529.53;29395;279;63005;-64
2023/02/23 00:05:46;;;;;;;0.50;0.50;;;;;;;7.96;77.10;96526.31;29395;228;63005;-65
2023/02/23 00:06:18;;;;;;;0.50;0.50;;;;;;;7.95;77.29;96516.63;29395;216;63005;-65
2023/02/23 00:06:51;;;;;;;0.50;0.50;;;;;;;7.95;77.52;96524.72;29395;197;63009;-66
2023/02/23 00:07:22;;;;;;;0.50;0.50;;;;;;;7.94;77.12;96523.09;29395;223;63005;-66
2023/02/23 00:07:54;;;;;;;0.50;0.50;;;;;;;7.95;77.50;96526.63;29395;359;63009;-66
2023/02/23 00:08:27;;;;;;;0.70;0.70;;;;;;;7.93;77.12;96521.50;29394;218;64009;-65
2023/02/23 00:09:00;;;;;;;0.50;0.50;;;;;;;7.93;77.86;96526.91;29395;220;63009;-66
2023/02/23 00:09:34;;;;;;;0.50;0.50;;;;;;;7.95;77.52;96529.31;29395;339;63004;-66
2023/02/23 00:10:11;;;;;;;0.50;0.50;;;;;;;7.94;77.92;96527.69;29395;212;63009;-66
2023/02/23 00:10:43;;;;;;;0.50;0.50;;;;;;;7.94;77.87;96531.22;29395;217;63004;-64
2023/02/23 00:11:16;;;;;;;0.50;0.50;;;;;;;7.94;78.12;96527.69;29395;203;63009;-63
2023/02/23 00:11:48;;;;;;;0.50;0.50;;;;;;;7.93;78.24;96526.91;29395;261;63004;-64
2023/02/23 00:12:19;;;;;;;0.40;0.40;;;;;;;7.95;78.52;96524.72;29395;231;63009;-65
2023/02/23 00:12:51;;;;;;;0.50;0.50;;;;;;;7.95;78.68;96522.00;29394;212;64009;-64
2023/02/23 00:13:22;;;;;;;0.50;0.50;;;;;;;7.95;78.87;96522.00;29395;251;63009;-65
2023/02/23 00:13:55;;;;;;;0.50;0.50;;;;;;;7.96;78.65;96523.63;29395;337;63005;-64
2023/02/23 00:14:29;;;;;;;0.50;0.50;;;;;;;7.97;78.77;96521.72;29395;209;63009;-65
2023/02/23 00:15:01;;;;;;;0.50;0.50;;;;;;;7.98;78.91;96529.53;29395;225;63005;-64
2023/02/23 00:15:32;;;;;;;0.50;0.50;;;;;;;7.99;78.98;96528.44;29395;224;63009;-66
2023/02/23 00:16:12;;;;;;;0.50;0.50;;;;;;;7.99;79.01;96520.31;29395;206;63005;-66
2023/02/23 00:16:47;;;;;;;0.50;0.50;;;;;;;7.98;79.16;96524.13;29417;331;63009;-65
2023/02/23 00:17:18;;;;;;;0.50;0.50;;;;;;;7.96;79.13;96515.53;29395;221;63004;-66
2023/02/23 00:17:50;;;;;;;0.50;0.50;;;;;;;7.97;79.08;96522.50;29395;216;63009;-66
2023/02/23 00:18:28;;;;;;;0.50;0.50;;;;;;;7.98;79.02;96523.31;29394;240;64009;-66
2023/02/23 00:19:01;;;;;;;0.50;0.50;;;;;;;7.98;79.36;96518.72;29395;284;63008;-65
2023/02/23 00:19:36;;;;;;;0.50;0.50;;;;;;;7.97;78.61;96522.50;29395;267;63004;-67
2023/02/23 00:20:10;;;;;;;0.50;0.50;;;;;;;7.98;78.75;96520.59;29395;197;63009;-66
2023/02/23 00:20:46;;;;;;;0.50;0.50;;;;;;;7.98;78.81;96524.13;29395;243;63011;-65
2023/02/23 00:21:21;;;;;;;0.50;0.50;;;;;;;7.98;78.78;96521.41;29395;237;63009;-65
2023/02/23 00:21:57;;;;;;;0.50;0.50;;;;;;;7.98;78.62;96518.72;29395;296;63005;-65
2023/02/23 00:22:28;;;;;;;0.50;0.50;;;;;;;7.99;78.51;96519.53;29395;204;63009;-65
2023/02/23 00:23:00;;;;;;;0.50;0.50;;;;;;;7.99;78.75;96525.72;29395;211;63005;-66
2023/02/23 00:23:31;;;;;;;0.50;0.50;;;;;;;7.97;79.04;96519.81;29394;221;64013;-65
2023/02/23 00:24:08;;;;;;;0.50;0.50;;;;;;;7.97;78.66;96516.31;29395;225;63004;-66
2023/02/23 00:24:41;;;;;;;0.45;0.45;;;;;;;7.98;79.30;96513.31;29395;203;63009;-66
2023/02/23 00:25:13;;;;;;;0.50;0.50;;;;;;;7.98;78.88;96524.13;29395;222;63004;-66
2023/02/23 00:25:45;;;;;;;0.45;0.45;;;;;;;7.98;78.73;96516.00;29395;202;63009;-64
2023/02/23 00:26:19;;;;;;;0.50;0.50;;;;;;;7.99;79.59;96520.31;29395;238;63016;-65
2023/02/23 00:26:50;;;;;;;0.50;0.50;;;;;;;7.97;79.74;96521.72;29395;198;63008;-65
2023/02/23 00:27:22;;;;;;;0.50;0.50;;;;;;;7.96;79.68;96523.63;29395;213;63005;-64
2023/02/23 00:27:53;;;;;;;0.50;0.50;;;;;;;7.95;79.69;96522.00;29395;257;63009;-64
2023/02/23 00:28:25;;;;;;;0.50;0.50;;;;;;;7.94;79.75;96525.81;29394;230;63996;-66
2023/02/23 00:28:57;;;;;;;0.50;0.50;;;;;;;7.94;79.80;96523.09;29395;204;63009;-66
2023/02/23 00:29:31;;;;;;;0.50;0.50;;;;;;;7.94;79.83;96527.69;29394;202;64009;-65
2023/02/23 00:30:02;;;;;;;0.70;0.70;;;;;;;7.94;80.13;96522.28;29395;231;63009;-66
2023/02/23 00:30:34;;;;;;;0.50;0.50;;;;;;;7.94;80.29;96527.69;29395;210;63005;-67
2023/02/23 00:31:07;;;;;;;0.50;0.50;;;;;;;7.92;80.58;96525.28;29395;222;63009;-66
2023/02/23 00:31:38;;;;;;;0.50;0.50;;;;;;;7.91;80.99;96531.78;29395;282;63000;-65
2023/02/23 00:32:10;;;;;;;0.50;0.50;;;;;;;7.90;80.97;96527.47;29395;198;63009;-66
2023/02/23 00:32:41;;;;;;;0.50;0.50;;;;;;;7.89;81.30;96525.84;29395;225;63004;-66
2023/02/23 00:33:12;;;;;;;0.50;0.50;;;;;;;7.89;82.06;96525.84;29394;223;64013;-66
2023/02/23 00:33:44;;;;;;;0.50;0.50;;;;;;;7.88;82.27;96524.25;29395;220;63004;-65
2023/02/23 00:34:20;;;;;;;0.50;0.50;;;;;;;7.86;82.47;96525.59;29395;214;63008;-66
2023/02/23 00:34:52;;;;;;;0.50;0.50;;;;;;;7.86;82.95;96531.81;29395;221;63005;-64
2023/02/23 00:35:23;;;;;;;0.50;0.50;;;;;;;7.83;82.34;96526.97;29395;200;63009;-64
2023/02/23 00:35:55;;;;;;;0.50;0.50;;;;;;;7.83;82.26;96526.97;29395;197;63013;-65
2023/02/23 00:36:29;;;;;;;0.50;0.50;;;;;;;7.82;82.61;96530.78;29395;264;63009;-65
2023/02/23 00:37:00;;;;;;;0.50;0.50;;;;;;;7.81;83.48;96523.75;29395;255;63005;-65
2023/02/23 00:37:32;;;;;;;0.50;0.50;;;;;;;7.81;83.85;96531.06;29395;222;63009;-65
2023/02/23 00:38:03;;;;;;;0.50;0.50;;;;;;;7.79;84.88;96525.94;29395;274;63005;-64
2023/02/23 00:38:35;;;;;;;0.50;0.50;;;;;;;7.77;83.96;96528.09;29394;225;64013;-65
2023/02/23 00:39:20;;;;;;;0.50;0.50;;;;;;;7.76;83.05;96525.69;29395;198;63004;-65
2023/02/23 00:39:55;;;;;;;0.50;0.50;;;;;;;7.76;83.32;96529.19;29395;223;63009;-65
2023/02/23 00:40:27;;;;;;;0.50;0.50;;;;;;;7.76;82.94;96531.91;29395;320;63004;-64
2023/02/23 00:40:59;;;;;;;0.50;0.50;;;;;;;7.76;83.23;96529.19;29395;244;63009;-64
2023/02/23 00:41:30;;;;;;;0.50;0.50;;;;;;;7.76;84.00;96529.19;29395;204;63004;-64
2023/02/23 00:42:02;;;;;;;0.50;0.50;;;;;;;7.75;86.42;96524.87;29395;234;63008;-63
2023/02/23 00:42:34;;;;;;;0.47;0.47;;;;;;;7.73;86.62;96525.16;29395;287;63008;-63
2023/02/23 00:43:05;;;;;;;0.50;0.50;;;;;;;7.71;85.99;96518.44;29395;241;63025;-64
2023/02/23 00:43:57;;;;;;;0.50;0.50;;;;;;;7.70;86.29;96527.63;29394;208;64009;-65
2023/02/23 00:44:34;;;;;;;0.50;0.50;;;;;;;7.67;88.82;96528.19;29394;225;64013;-63
2023/02/23 00:45:11;;;;;;;0.50;0.50;;;;;;;7.64;88.43;96523.34;29395;208;63005;-65
2023/02/23 00:45:44;;;;;;;0.50;0.50;;;;;;;7.63;89.42;96527.13;29395;215;63009;-64
2023/02/23 00:46:20;;;;;;;0.50;0.50;;;;;;;7.60;89.96;96522.31;29395;226;63010;-63
2023/02/23 00:46:52;;;;;;;0.50;0.50;;;;;;;7.56;90.46;96516.69;29395;259;63009;-63
2023/02/23 00:47:23;;;;;;;0.50;0.50;;;;;;;7.54;90.72;96518.84;29395;230;63004;-65
2023/02/23 00:47:55;;;;;;;0.50;0.50;;;;;;;7.52;90.83;96522.94;29395;262;63009;-65
2023/02/23 00:48:27;;;;;;;0.50;0.50;;;;;;;7.50;90.71;96519.69;29395;197;63009;-64
2023/02/23 00:48:59;;;;;;;0.50;0.50;;;;;;;7.49;91.03;96523.50;29395;284;63008;-65
2023/02/23 00:49:30;;;;;;;0.50;0.50;;;;;;;7.49;90.17;96515.38;29395;240;63004;-64
2023/02/23 00:50:16;;;;;;;0.50;0.50;;;;;;;7.49;89.95;96515.38;29394;209;64014;-65
2023/02/23 00:50:57;;;;;;;0.50;0.50;;;;;;;7.48;89.17;96517.28;29395;218;63005;-63
2023/02/23 00:51:29;;;;;;;0.50;0.50;;;;;;;7.48;88.99;96514.59;29417;242;63009;-64
2023/02/23 00:52:01;;;;;;;0.80;0.80;;;;;;;7.48;89.28;96519.19;29395;233;63005;-63
2023/02/23 00:52:32;;;;;;;0.50;0.50;;;;;;;7.48;89.45;96519.19;29395;245;63009;-65
2023/02/23 00:53:03;;;;;;;0.50;0.50;;;;;;;7.47;90.24;96518.37;29394;212;64009;-64
2023/02/23 00:53:35;;;;;;;0.50;0.50;;;;;;;7.48;90.17;96521.88;29395;214;63009;-64
2023/02/23 00:54:07;;;;;;;0.50;0.50;;;;;;;7.47;90.06;96512.16;29395;258;63004;-64
2023/02/23 00:54:38;;;;;;;0.50;0.50;;;;;;;7.45;90.33;96508.94;29394;208;64003;-64
2023/02/23 00:55:11;;;;;;;0.50;0.50;;;;;;;7.45;89.63;96515.16;29395;203;63004;-65
2023/02/23 00:55:43;;;;;;;0.50;0.50;;;;;;;7.46;89.85;96510.56;29395;284;63009;-64
2023/02/23 00:56:15;;;;;;;0.50;0.50;;;;;;;7.45;89.05;96511.63;29395;243;63004;-64
2023/02/23 00:56:47;;;;;;;0.50;0.50;;;;;;;7.44;88.92;96518.13;29395;290;63009;-65
2023/02/23 00:57:18;;;;;;;0.50;0.50;;;;;;;7.46;88.73;96513.25;29395;207;63010;-64
2023/02/23 00:57:50;;;;;;;0.50;0.50;;;;;;;7.46;89.28;96510.56;29394;219;64014;-65
2023/02/23 00:58:29;;;;;;;0.50;0.50;;;;;;;7.46;90.42;96513.25;29395;207;63005;-65
2023/02/23 00:59:00;;;;;;;0.50;0.50;;;;;;;7.45;90.76;96508.94;29395;241;63009;-64
2023/02/23 00:59:31;;;;;;;0.50;0.50;;;;;;;7.44;90.04;96512.72;29395;202;63005;-64
2023/02/23 01:00:17;;;;;;;0.50;0.50;;;;;;;7.43;89.91;96517.31;29394;213;64013;-64
2023/02/23 01:00:52;;;;;;;0.50;0.50;;;;;;;7.42;89.51;96514.91;29395;241;63004;-62
2023/02/23 01:01:24;;;;;;;0.50;0.50;;;;;;;7.42;89.17;96521.09;29395;218;63009;-64
2023/02/23 01:01:56;;;;;;;0.50;0.50;;;;;;;7.42;89.00;96515.69;29395;223;63004;-65
2023/02/23 01:02:29;;;;;;;0.50;0.50;;;;;;;7.43;89.29;96511.91;29395;206;63023;-64
2023/02/23 01:03:00;;;;;;;0.50;0.50;;;;;;;7.43;89.30;96517.31;29395;213;63004;-64
2023/02/23 01:03:32;;;;;;;0.50;0.50;;;;;;;7.44;90.82;96518.13;29395;206;63008;-64
2023/02/23 01:04:07;;;;;;;0.50;0.50;;;;;;;7.42;91.41;96514.91;29395;225;63017;-64
2023/02/23 01:04:39;;;;;;;0.80;0.80;;;;;;;7.40;91.63;96515.97;29395;198;63009;-64
2023/02/23 01:05:10;;;;;;;0.50;0.50;;;;;;;7.39;91.01;96511.66;29394;251;64009;-64
2023/02/23 01:05:42;;;;;;;0.50;0.50;;;;;;;7.38;90.28;96520.84;29395;258;63009;-63
2023/02/23 01:06:15;;;;;;;0.50;0.50;;;;;;;7.38;90.44;96515.47;29395;272;63005;-63
2023/02/23 01:06:46;;;;;;;0.50;0.50;;;;;;;7.38;90.99;96510.06;29395;202;63009;-71
2023/02/23 01:07:18;;;;;;;0.50;0.50;;;;;;;7.38;91.90;96514.66;29395;206;63005;-63
2023/02/23 01:07:49;;;;;;;0.50;0.50;;;;;;;7.37;92.97;96510.34;29395;212;63009;-63
2023/02/23 01:08:21;;;;;;;0.90;0.90;;;;;;;7.35;93.46;96518.72;29395;225;63011;-64
2023/02/23 01:08:56;;;;;;;0.50;0.50;;;;;;;7.34;93.13;96509.00;29395;290;63009;-64
2023/02/23 01:09:28;;;;;;;0.50;0.50;;;;;;;7.34;92.73;96514.41;29395;210;63004;-65
2023/02/23 01:09:59;;;;;;;0.50;0.50;;;;;;;7.34;93.24;96519.00;29395;207;63018;-64
2023/02/23 01:10:31;;;;;;;0.80;0.80;;;;;;;7.33;93.17;96518.19;29394;220;64009;-64
2023/02/23 01:11:08;;;;;;;0.50;0.50;;;;;;;7.32;92.48;96510.37;29395;210;63008;-64
2023/02/23 01:11:40;;;;;;;0.50;0.50;;;;;;;7.32;92.62;96511.19;29395;245;63004;-63
2023/02/23 01:12:11;;;;;;;0.50;0.50;;;;;;;7.33;92.85;96507.41;29395;202;63009;-64
2023/02/23 01:12:42;;;;;;;0.50;0.50;;;;;;;7.33;92.98;96515.50;29395;273;63005;-65
2023/02/23 01:13:14;;;;;;;0.50;0.50;;;;;;;7.33;92.58;96517.37;29394;206;64014;-64
2023/02/23 01:13:46;;;;;;;0.50;0.50;;;;;;;7.33;93.24;96511.97;29395;232;63005;-64
2023/02/23 01:14:17;;;;;;;0.50;0.50;;;;;;;7.32;93.47;96505.78;29395;205;63009;-64
2023/02/23 01:14:48;;;;;;;0.50;0.50;;;;;;;7.31;92.84;96509.56;29395;211;63005;-64
2023/02/23 01:15:21;;;;;;;0.50;0.50;;;;;;;7.32;92.94;96510.37;29395;280;63009;-63
2023/02/23 01:15:53;;;;;;;0.50;0.50;;;;;;;7.31;93.12;96514.97;29395;236;63005;-64
2023/02/23 01:16:27;;;;;;;0.50;0.50;;;;;;;7.31;92.85;96512.25;29395;310;63009;-64
2023/02/23 01:16:59;;;;;;;2.17;2.15;;;;;;;7.31;92.32;96509.56;29394;231;64009;-64
2023/02/23 01:17:34;;;;;;;0.50;0.50;;;;;;;7.31;91.83;96509.56;29395;206;63009;-63
2023/02/23 01:18:05;;;;;;;0.50;0.50;;;;;;;7.31;91.78;96509.56;29395;235;63004;-65
2023/02/23 01:18:39;;;;;;;0.50;0.50;;;;;;;7.33;91.65;96518.19;29395;212;63008;-64
2023/02/23 01:19:10;;;;;;;1.15;1.15;;;;;;;7.35;91.74;96505.22;29395;269;63008;-64
2023/02/23 01:19:42;;;;;;;0.50;0.50;;;;;;;7.34;91.90;96511.72;29395;270;63009;-65
2023/02/23 01:20:18;;;;;;;0.50;0.50;;;;;;;7.34;91.60;96514.41;29395;232;63011;-64
2023/02/23 01:20:52;;;;;;;0.50;0.50;;;;;;;7.36;91.29;96508.72;29395;209;63009;-63
2023/02/23 01:21:27;;;;;;;0.40;0.40;;;;;;;7.35;91.73;96510.63;29394;242;64009;-64
2023/02/23 01:21:59;;;;;;;0.50;0.50;;;;;;;7.35;92.55;96513.31;29395;301;63009;-63
2023/02/23 01:22:31;;;;;;;0.50;0.50;;;;;;;7.36;93.18;96508.72;29395;225;63005;-64
2023/02/23 01:23:04;;;;;;;0.50;0.50;;;;;;;7.33;93.83;96510.09;29395;295;63009;-64
2023/02/23 01:23:35;;;;;;;0.50;0.50;;;;;;;7.32;93.41;96511.19;29395;215;63004;-64
2023/02/23 01:24:08;;;;;;;0.50;0.50;;;;;;;7.32;93.03;96507.69;29395;245;63009;-64
2023/02/23 01:24:42;;;;;;;0.50;0.50;;;;;;;7.30;92.43;96510.66;29395;213;63013;-63
2023/02/23 01:25:15;;;;;;;0.50;0.50;;;;;;;7.30;92.35;96507.94;29395;202;63010;-64
2023/02/23 01:25:46;;;;;;;0.50;0.50;;;;;;;7.31;92.16;96506.88;29395;235;63004;-65
2023/02/23 01:26:24;;;;;;;0.50;0.50;;;;;;;7.31;92.46;96509.56;29394;207;64013;-63
2023/02/23 01:26:55;;;;;;;0.50;0.50;;;;;;;7.31;92.14;96509.56;29395;205;63001;-64
2023/02/23 01:27:26;;;;;;;0.55;0.55;;;;;;;7.30;92.18;96507.94;29394;197;64014;-65
2023/02/23 01:27:57;;;;;;;0.50;0.50;;;;;;;7.31;92.35;96509.56;29395;220;63012;-64
2023/02/23 01:28:29;;;;;;;0.50;0.50;;;;;;;7.31;92.96;96506.88;29395;202;63009;-64
2023/02/23 01:29:07;;;;;;;0.50;0.50;;;;;;;7.30;93.21;96505.25;29395;221;63005;-64
2023/02/23 01:29:39;;;;;;;0.50;0.50;;;;;;;7.30;93.37;96512.53;29395;232;63009;-64
2023/02/23 01:30:14;;;;;;;0.50;0.50;;;;;;;7.29;92.86;96511.75;29395;255;63005;-63
2023/02/23 01:30:45;;;;;;;0.50;0.50;;;;;;;7.29;93.10;96509.03;29395;238;63009;-64
2023/02/23 01:31:16;;;;;;;0.50;0.50;;;;;;;7.28;92.85;96510.13;29395;206;63004;-64
2023/02/23 01:31:51;;;;;;;0.50;0.50;;;;;;;7.29;92.79;96509.03;29395;197;63009;-65
2023/02/23 01:32:23;;;;;;;0.50;0.50;;;;;;;7.29;93.21;96511.75;29394;202;64009;-64
2023/02/23 01:32:54;;;;;;;0.50;0.50;;;;;;;7.29;93.29;96500.13;29395;256;63009;-65
2023/02/23 01:33:25;;;;;;;0.50;0.50;;;;;;;7.30;93.65;96502.56;29395;204;63004;-64
2023/02/23 01:33:59;;;;;;;0.50;0.50;;;;;;;7.29;94.12;96511.75;29395;250;63008;-63
2023/02/23 01:34:30;;;;;;;0.50;0.50;;;;;;;7.28;93.82;96504.72;29395;220;63011;-64
2023/02/23 01:35:04;;;;;;;0.50;0.50;;;;;;;7.28;93.14;96504.72;29395;216;63026;-63
2023/02/23 01:35:36;;;;;;;0.50;0.50;;;;;;;7.29;93.49;96511.75;29395;210;63005;-63
2023/02/23 01:36:08;;;;;;;0.50;0.50;;;;;;;7.27;93.90;96503.16;29394;197;64005;-65
2023/02/23 01:36:42;;;;;;;0.50;0.50;;;;;;;7.27;93.53;96505.84;29395;236;63005;-64
2023/02/23 01:37:13;;;;;;;0.50;0.50;;;;;;;7.28;93.90;96512.81;29395;235;63026;-63
2023/02/23 01:37:44;;;;;;;0.50;0.50;;;;;;;7.27;93.87;96503.16;29395;255;63004;-64
2023/02/23 01:38:15;;;;;;;0.50;0.50;;;;;;;7.28;94.10;96504.72;29395;278;63009;-65
2023/02/23 01:38:48;;;;;;;0.50;0.50;;;;;;;7.28;93.58;96503.91;29395;365;63004;-64
2023/02/23 01:39:21;;;;;;;0.50;0.50;;;;;;;7.28;93.41;96510.13;29395;268;63009;-64
2023/02/23 01:39:53;;;;;;;0.50;0.50;;;;;;;7.26;92.91;96504.22;29395;197;63004;-63
2023/02/23 01:40:29;;;;;;;0.50;0.50;;;;;;;7.28;93.41;96503.91;29395;203;63017;-66
2023/02/23 01:41:00;;;;;;;0.50;0.50;;;;;;;7.29;93.39;96502.84;29395;221;63004;-64
2023/02/23 01:41:32;;;;;;;0.50;0.50;;;;;;;7.27;93.62;96503.16;29394;232;64013;-63
2023/02/23 01:42:04;;;;;;;0.50;0.50;;;;;;;7.28;94.20;96498.53;29395;199;63019;-64
2023/02/23 01:42:40;;;;;;;0.50;0.50;;;;;;;7.27;93.92;96500.44;29394;220;64014;-65
2023/02/23 01:43:15;;;;;;;0.50;0.50;;;;;;;7.27;93.91;96500.44;29395;208;63005;-62
2023/02/23 01:44:04;;;;;;;0.50;0.50;;;;;;;7.27;94.16;96503.16;29395;270;63017;-65
2023/02/23 01:45:16;;;;;;;0.50;0.50;;;;;;;7.25;93.95;96499.91;29395;226;63010;-63
2023/02/23 01:45:47;;;;;;;0.50;0.50;;;;;;;7.26;93.49;96503.44;29417;231;63009;-65
2023/02/23 01:46:19;;;;;;;0.50;0.50;;;;;;;7.26;93.71;96496.13;29395;232;63004;-65
2023/02/23 01:46:51;;;;;;;0.50;0.50;;;;;;;7.25;93.55;96497.22;29395;210;63009;-64
2023/02/23 01:47:25;;;;;;;0.50;0.50;;;;;;;7.26;93.31;96496.13;29394;223;64009;-63
2023/02/23 01:48:04;;;;;;;0.50;0.50;;;;;;;7.27;93.48;96497.75;29394;305;64004;-63
2023/02/23 01:48:41;;;;;;;0.50;0.50;;;;;;;7.28;93.33;96498.53;29395;275;63017;-63
2023/02/23 01:49:19;;;;;;;0.50;0.50;;;;;;;7.28;93.52;96493.94;29395;215;63009;-65
2023/02/23 01:49:50;;;;;;;0.50;0.50;;;;;;;7.29;93.76;96506.34;29395;230;63005;-63
2023/02/23 01:50:25;;;;;;;0.50;0.50;;;;;;;7.28;93.85;96493.94;29394;205;64013;-63
2023/02/23 01:51:17;;;;;;;1.35;1.35;;;;;;;7.28;93.50;96498.53;29395;289;63010;-64
2023/02/23 01:51:54;;;;;;;0.50;0.50;;;;;;;7.28;93.56;96502.03;29395;263;63009;-65
2023/02/23 01:52:26;;;;;;;0.50;0.50;;;;;;;7.28;93.73;96498.53;29395;251;63005;-62
2023/02/23 01:52:58;;;;;;;0.50;0.50;;;;;;;7.28;94.01;96495.81;29395;245;63014;-65
2023/02/23 01:53:33;;;;;;;0.50;0.50;;;;;;;7.28;94.31;96498.53;29394;252;64004;-63
2023/02/23 01:54:27;;;;;;;0.50;0.50;;;;;;;7.27;94.69;96497.75;29395;197;63017;-64
2023/02/23 01:54:59;;;;;;;0.60;0.60;;;;;;;7.26;94.23;96490.75;29395;240;63004;-64
2023/02/23 01:55:31;;;;;;;0.50;0.50;;;;;;;7.26;94.21;96496.13;29394;202;64013;-64
2023/02/23 01:56:10;;;;;;;0.43;0.43;;;;;;;7.27;94.33;96496.94;29395;218;63004;-64
2023/02/23 01:56:56;;;;;;;0.50;0.50;;;;;;;7.26;94.52;96489.94;29395;277;63023;-65
2023/02/23 01:57:28;;;;;;;0.50;0.50;;;;;;;7.27;94.61;96497.75;29395;251;63005;-64
2023/02/23 01:58:14;;;;;;;0.50;0.50;;;;;;;7.26;95.51;96495.31;29395;213;63009;-65
2023/02/23 01:58:51;;;;;;;0.60;0.60;;;;;;;7.24;94.80;96492.91;29394;241;64009;-65
2023/02/23 01:59:36;;;;;;;0.50;0.50;;;;;;;7.25;94.62;96494.53;29395;258;63009;-65
2023/02/23 02:00:12;;;;;;;0.50;0.50;;;;;;;7.29;94.52;96492.84;29395;225;63017;-64
2023/02/23 02:00:53;;;;;;;0.50;0.50;;;;;;;7.32;94.33;96489.59;29395;245;63009;-65
2023/02/23 02:01:24;;;;;;;;;;;;;;;7.33;94.39;96496.59;29996;983;6000;-65
2023/02/23 02:01:58;;;;;;;0.50;0.50;;;;;;;7.33;94.33;96496.59;29400;212;63004;-63
2023/02/23 02:02:32;;;;;;;0.50;0.50;;;;;;;7.32;94.69;96491.47;29395;213;63009;-63
2023/02/23 02:03:10;;;;;;;4.57;4.37;;;;;;;7.32;95.25;96494.19;29394;229;64008;-64
2023/02/23 02:03:54;;;;;;;0.50;0.50;;;;;;;7.31;96.03;96492.56;29395;212;63008;-64
2023/02/23 02:04:27;;;;;;;0.50;0.50;;;;;;;7.29;96.09;96487.44;29395;221;63005;-64
2023/02/23 02:05:01;;;;;;;0.50;0.50;;;;;;;7.28;96.23;96496.63;29394;224;64003;-65
2023/02/23 02:05:36;;;;;;;0.50;0.50;;;;;;;7.27;96.12;96492.34;29395;257;63005;-64
2023/02/23 02:06:13;;;;;;;0.50;0.50;;;;;;;7.27;96.61;96492.34;29395;301;63009;-65
2023/02/23 02:06:47;;;;;;;0.50;0.50;;;;;;;7.26;97.25;96490.75;29395;202;63005;-64
2023/02/23 02:07:26;;;;;;;0.60;0.60;;;;;;;7.24;96.82;96492.91;29394;224;64013;-65
2023/02/23 02:07:58;;;;;;;0.50;0.50;;;;;;;7.25;96.05;96488.31;29394;267;64009;-65
2023/02/23 02:08:32;;;;;;;0.50;0.50;;;;;;;7.25;96.20;96483.72;29395;215;63009;-63
2023/02/23 02:09:09;;;;;;;0.50;0.50;;;;;;;7.26;96.07;96489.94;29395;239;63004;-65
2023/02/23 02:10:16;;;;;;;0.50;0.50;;;;;;;7.25;95.82;96491.03;29395;288;63009;-64
2023/02/23 02:10:43;;;;;;;0.50;0.50;;;;;;;7.25;96.24;96493.72;29395;244;63004;-65
2023/02/23 02:11:35;;;;;;;;;;;;;;;7.25;96.30;96489.13;29996;983;6008;-65
2023/02/23 02:12:11;;;;;;;0.50;0.50;;;;;;;7.27;95.44;96492.34;29400;243;63005;-64
2023/02/23 02:12:45;;;;;;;0.50;0.50;;;;;;;7.27;95.59;96492.34;29394;243;64009;-65
2023/02/23 02:13:20;;;;;;;0.50;0.50;;;;;;;7.28;95.72;96483.12;29395;243;63009;-65
2023/02/23 02:13:58;;;;;;;0.50;0.50;;;;;;;7.29;95.51;96490.16;29394;273;64009;-64
2023/02/23 02:14:31;;;;;;;0.50;0.50;;;;;;;7.30;95.50;96483.66;29395;220;63009;-63
2023/02/23 02:15:06;;;;;;;0.50;0.50;;;;;;;7.32;94.97;96488.78;29395;229;63005;-64
2023/02/23 02:15:55;;;;;;;0.50;0.50;;;;;;;7.31;94.72;96493.38;29394;223;64013;-66
2023/02/23 02:16:51;;;;;;;0.50;0.50;;;;;;;7.32;94.91;96491.47;29395;247;63004;-64
2023/02/23 02:17:52;;;;;;;0.50;0.50;;;;;;;7.32;95.48;96491.47;29395;197;63004;-65
2023/02/23 02:19:17;;;;;;;0.50;0.50;;;;;;;7.30;94.86;96494.47;29438;259;64008;-64
2023/02/23 02:20:41;;;;;;;0.50;0.50;;;;;;;7.30;94.83;96483.66;29373;224;63023;-64
2023/02/23 02:22:07;;;;;;;0.50;0.50;;;;;;;7.31;94.97;96487.97;29394;259;64009;-65
2023/02/23 02:23:27;;;;;;;0.50;0.50;;;;;;;7.33;94.96;96488.50;29395;197;63027;-65
2023/02/23 02:24:31;;;;;;;0.50;0.50;;;;;;;7.33;94.79;96487.69;29394;336;64009;-64
2023/02/23 02:25:33;;;;;;;0.50;0.50;;;;;;;7.33;95.14;96488.50;29395;204;63008;-64
2023/02/23 02:26:37;;;;;;;0.50;0.50;;;;;;;7.33;96.70;96483.09;29416;196;64013;-64
2023/02/23 02:28:03;;;;;;;0.50;0.50;;;;;;;7.33;96.18;96485.00;29394;197;64014;-65
2023/02/23 02:29:27;;;;;;;0.50;0.50;;;;;;;7.34;96.12;96482.00;29395;212;63005;-63
2023/02/23 02:30:42;;;;;;;0.50;0.50;;;;;;;7.34;96.14;96483.91;29395;258;63009;-64
2023/02/23 02:31:55;;;;;;;0.50;0.50;;;;;;;7.35;96.00;96483.62;29394;231;64009;-63
2023/02/23 02:33:11;;;;;;;0.50;0.50;;;;;;;7.34;95.99;96484.72;29395;239;63004;-64
2023/02/23 02:34:23;;;;;;;0.50;0.50;;;;;;;7.37;95.84;96480.66;29394;226;64013;-65
2023/02/23 02:35:26;;;;;;;0.50;0.50;;;;;;;7.39;95.90;96481.19;29394;197;64014;-63
2023/02/23 02:36:28;;;;;;;0.50;0.50;;;;;;;7.40;95.91;96480.91;29417;211;63005;-65
2023/02/23 02:37:28;;;;;;;0.50;0.50;;;;;;;7.39;97.15;96473.88;29394;216;64009;-65
2023/02/23 02:38:41;;;;;;;0.52;0.52;;;;;;;7.42;96.41;96479.81;29395;238;63009;-65
2023/02/23 02:40:16;;;;;;;0.50;0.50;;;;;;;7.44;96.49;96478.44;29394;296;64009;-64
2023/02/23 02:41:02;;;;;;;0.50;0.50;;;;;;;7.53;96.41;96475.94;29395;204;63008;-65
2023/02/23 02:41:52;;;;;;;0.60;0.60;;;;;;;7.54;96.32;96472.16;29395;239;63005;-65
2023/02/23 02:42:40;;;;;;;0.50;0.50;;;;;;;7.50;95.93;96473.81;29395;211;63009;-65
2023/02/23 02:43:20;;;;;;;0.50;0.50;;;;;;;7.48;96.46;96475.97;29395;212;63005;-64
2023/02/23 02:44:21;;;;;;;0.50;0.50;;;;;;;7.46;96.00;96478.16;29439;214;63009;-65
2023/02/23 02:45:08;;;;;;;0.50;0.50;;;;;;;7.45;96.39;96479.25;29394;261;64009;-65
2023/02/23 02:45:52;;;;;;;0.50;0.50;;;;;;;7.45;96.32;96471.16;29395;220;63009;-65
2023/02/23 02:46:33;;;;;;;0.50;0.50;;;;;;;7.46;96.23;96478.16;29395;240;63004;-65
2023/02/23 02:47:11;;;;;;;0.50;0.50;;;;;;;7.47;96.12;96477.06;29417;255;63009;-64
2023/02/23 02:47:52;;;;;;;0.50;0.50;;;;;;;7.51;96.12;96473.53;29395;245;63004;-65
2023/02/23 02:49:05;;;;;;;0.50;0.50;;;;;;;7.54;95.71;96472.16;29417;201;63008;-65
2023/02/23 02:49:59;;;;;;;0.50;0.50;;;;;;;7.53;95.34;96468.66;29394;230;64009;-64
2023/02/23 02:51:15;;;;;;;0.50;0.50;;;;;;;7.55;95.52;96473.78;29395;203;63009;-64
2023/02/23 02:52:00;;;;;;;0.50;0.50;;;;;;;7.51;95.53;96465.44;29395;219;63009;-65
2023/02/23 02:52:48;;;;;;;0.90;0.90;;;;;;;7.50;95.47;96471.09;29395;208;63009;-64
2023/02/23 02:53:49;;;;;;;0.60;0.60;;;;;;;7.50;95.99;96473.81;29395;214;63004;-64
2023/02/23 02:54:35;;;;;;;0.50;0.50;;;;;;;7.45;96.68;96473.84;29394;199;64013;-63
2023/02/23 02:55:22;;;;;;;0.50;0.50;;;;;;;7.43;96.94;96465.22;29395;279;63004;-66
2023/02/23 02:55:58;;;;;;;0.50;0.50;;;;;;;7.43;96.49;96465.22;29395;273;63009;-65
2023/02/23 02:56:32;;;;;;;0.60;0.60;;;;;;;7.43;96.56;96462.53;29395;235;63005;-64
2023/02/23 02:57:05;;;;;;;0.60;0.60;;;;;;;7.42;96.16;96472.50;29395;221;63009;-63
2023/02/23 02:57:39;;;;;;;0.50;0.50;;;;;;;7.43;96.07;96473.31;29394;213;64009;-63
2023/02/23 02:58:11;;;;;;;0.50;0.50;;;;;;;7.43;96.21;96473.31;29395;296;63014;-64
2023/02/23 02:58:44;;;;;;;0.50;0.50;;;;;;;7.43;96.54;96473.31;29395;203;63005;-64
2023/02/23 04:17:46;;;;;;;0.50;0.50;;;;;;;7.25;97.67;96481.03;29395;220;63009;-63
2023/02/23 04:18:28;;;;;;;0.50;0.50;;;;;;;7.25;98.09;96483.72;29395;220;63005;-63
2023/02/23 04:19:00;;;;;;;0.50;0.50;;;;;;;7.24;98.15;96482.13;29395;243;63009;-65
2023/02/23 04:19:31;;;;;;;0.50;0.50;;;;;;;7.24;98.25;96482.13;29395;237;63004;-65
2023/02/23 04:20:05;;;;;;;0.50;0.50;;;;;;;7.25;97.70;96482.94;29395;229;63009;-65
2023/02/23 04:20:37;;;;;;;0.60;0.60;;;;;;;7.25;98.02;96481.03;29395;199;63004;-64
2023/02/23 04:21:08;;;;;;;0.50;0.50;;;;;;;7.25;97.93;96477.53;29395;235;63009;-63